createdAt,value
2023-03-20T00:01:07.946Z,0.8
2023-03-20T00:02:16.494Z,1
2023-03-20T00:03:24.856Z,1
2023-03-20T00:04:33.214Z,1
2023-03-20T00:05:41.685Z,1.2
2023-03-20T00:06:50.021Z,1.2
2023-03-20T00:07:58.344Z,1.2
2023-03-20T00:09:07.693Z,1.2
2023-03-20T00:10:15.236Z,1.2
2023-03-20T00:11:23.551Z,1.2
2023-03-20T00:12:32.089Z,1.3
2023-03-20T00:13:40.418Z,1.3
2023-03-20T00:14:48.739Z,1.3
2023-03-20T00:15:57.321Z,1.1
2023-03-20T00:17:05.659Z,1.1
2023-03-20T00:18:13.996Z,1.1
2023-03-20T00:19:22.534Z,1.2
2023-03-20T00:20:31.732Z,1.2
2023-03-20T00:21:39.201Z,1.2
2023-03-20T00:22:47.755Z,1.7
2023-03-20T00:23:56.088Z,1.7
2023-03-20T00:25:04.419Z,1.7
2023-03-20T00:26:12.983Z,1.5
2023-03-20T00:27:21.291Z,1.5
2023-03-20T00:28:29.613Z,1.5
2023-03-20T00:29:38.148Z,1.4
2023-03-20T00:30:46.476Z,1.4
2023-03-20T00:31:54.808Z,1.4
2023-03-20T00:33:03.397Z,1.6
2023-03-20T00:34:11.672Z,1.6
2023-03-20T00:35:19.998Z,1.6
2023-03-20T00:36:28.549Z,1.7
2023-03-20T00:37:36.873Z,1.7
2023-03-20T00:38:45.202Z,1.7
2023-03-20T00:39:53.734Z,1.7
2023-03-20T00:41:02.072Z,1.7
2023-03-20T00:42:10.427Z,1.7
2023-03-20T00:43:18.939Z,1.7
2023-03-20T00:44:27.286Z,1.7
2023-03-20T00:45:35.925Z,1.7
2023-03-20T00:46:44.194Z,1.4
2023-03-20T00:47:52.479Z,1.4
2023-03-20T00:49:00.804Z,1.4
2023-03-20T00:50:09.330Z,1.5
2023-03-20T00:51:17.689Z,1.5
2023-03-20T00:52:26.014Z,1.5
2023-03-20T00:53:34.545Z,1.5
2023-03-20T00:54:42.877Z,1.5
2023-03-20T00:55:51.197Z,1.5
2023-03-20T00:56:59.747Z,1.6
2023-03-20T00:58:08.101Z,1.6
2023-03-20T00:59:16.431Z,1.6
2023-03-20T01:00:24.956Z,1.8
2023-03-20T01:01:33.272Z,1.8
2023-03-20T01:02:41.606Z,1.8
2023-03-20T01:03:50.162Z,2.2
2023-03-20T01:04:58.511Z,2.2
2023-03-20T01:06:06.836Z,2.2
2023-03-20T01:07:15.367Z,2.5
2023-03-20T01:08:23.687Z,2.5
2023-03-20T01:09:32.027Z,2.5
2023-03-20T01:10:40.598Z,2.3
2023-03-20T01:11:48.938Z,2.3
2023-03-20T01:12:57.264Z,2.3
2023-03-20T01:14:05.829Z,1.7
2023-03-20T01:15:14.141Z,1.7
2023-03-20T01:16:22.526Z,1.7
2023-03-20T01:17:31.021Z,1.8
2023-03-20T01:18:39.357Z,1.8
2023-03-20T01:19:47.745Z,1.8
2023-03-20T01:20:56.229Z,2.2
2023-03-20T01:22:04.581Z,2.2
2023-03-20T01:23:12.876Z,2.2
2023-03-20T01:24:21.412Z,2.7
2023-03-20T01:25:29.739Z,2.7
2023-03-20T01:26:38.078Z,2.7
2023-03-20T01:27:46.616Z,3.5
2023-03-20T01:28:54.962Z,3.5
2023-03-20T01:30:03.300Z,3.5
2023-03-20T01:31:11.831Z,3.7
2023-03-20T01:32:20.163Z,3.7
2023-03-20T01:33:28.500Z,3.7
2023-03-20T01:34:37.015Z,4
2023-03-20T01:35:45.377Z,4
2023-03-20T01:36:53.715Z,4
2023-03-20T01:38:02.239Z,4.2
2023-03-20T01:39:10.560Z,4.2
2023-03-20T01:40:18.887Z,4.2
2023-03-20T01:41:27.424Z,4.4
2023-03-20T01:42:35.752Z,4.4
2023-03-20T01:43:44.079Z,4.4
2023-03-20T01:44:52.618Z,4.1
2023-03-20T01:46:00.982Z,4.1
2023-03-20T01:47:09.293Z,4.1
2023-03-20T01:48:17.833Z,4.7
2023-03-20T01:49:26.151Z,4.7
2023-03-20T01:50:34.470Z,4.7
2023-03-20T01:51:43.022Z,4.6
2023-03-20T01:52:51.359Z,4.6
2023-03-20T01:53:59.681Z,4.6
2023-03-20T01:55:08.215Z,4.2
2023-03-20T01:56:16.554Z,4.2
2023-03-20T01:57:24.894Z,4.2
2023-03-20T01:58:33.432Z,4.5
2023-03-20T01:59:41.774Z,4.5
2023-03-20T02:00:50.129Z,4.5
2023-03-20T02:01:58.678Z,5.1
2023-03-20T02:03:06.996Z,5.1
2023-03-20T02:04:15.314Z,5.1
2023-03-20T02:05:23.847Z,4.7
2023-03-20T02:06:32.217Z,4.7
2023-03-20T02:07:40.559Z,4.7
2023-03-20T02:08:49.082Z,5.3
2023-03-20T02:09:57.415Z,5.3
2023-03-20T02:11:05.763Z,5.3
2023-03-20T02:12:14.282Z,5
2023-03-20T02:13:22.614Z,5
2023-03-20T02:14:30.947Z,5
2023-03-20T02:15:39.484Z,5.5
2023-03-20T02:16:47.933Z,5.5
2023-03-20T02:17:56.185Z,5.5
2023-03-20T02:19:04.703Z,5.4
2023-03-20T02:20:13.029Z,5.4
2023-03-20T02:21:21.377Z,5.4
2023-03-20T02:22:29.914Z,5.4
2023-03-20T02:23:38.239Z,5.4
2023-03-20T02:24:46.568Z,5.4
2023-03-20T02:25:55.129Z,5.8
2023-03-20T02:27:03.446Z,5.8
2023-03-20T02:28:11.759Z,5.8
2023-03-20T02:29:20.295Z,5.5
2023-03-20T02:30:28.623Z,5.5
2023-03-20T02:31:36.975Z,5.5
2023-03-20T02:32:45.554Z,5.9
2023-03-20T02:33:53.881Z,5.9
2023-03-20T02:35:02.192Z,5.9
2023-03-20T02:36:10.816Z,5.6
2023-03-20T02:37:19.078Z,5.6
2023-03-20T02:38:27.398Z,5.6
2023-03-20T02:39:35.931Z,5.7
2023-03-20T02:40:44.294Z,5.7
2023-03-20T02:41:52.633Z,5.7
2023-03-20T02:43:01.132Z,5.8
2023-03-20T02:44:09.467Z,5.8
2023-03-20T02:45:17.785Z,5.8
2023-03-20T02:46:26.404Z,6.1
2023-03-20T02:47:34.684Z,6.1
2023-03-20T02:48:43.002Z,6.1
2023-03-20T02:49:51.558Z,6
2023-03-20T02:50:59.863Z,6
2023-03-20T02:52:08.210Z,6
2023-03-20T02:53:16.748Z,6.5
2023-03-20T02:54:25.082Z,6.5
2023-03-20T02:55:33.639Z,6.5
2023-03-20T02:56:41.963Z,6.6
2023-03-20T02:57:50.283Z,6.6
2023-03-20T02:58:58.623Z,6.6
2023-03-20T03:00:07.160Z,7.1
2023-03-20T03:01:15.560Z,7.1
2023-03-20T03:02:23.944Z,7.1
2023-03-20T03:03:32.369Z,7.1
2023-03-20T03:04:40.718Z,7.1
2023-03-20T03:05:49.072Z,7.1
2023-03-20T03:06:57.593Z,6.6
2023-03-20T03:08:05.919Z,6.6
2023-03-20T03:09:16.547Z,6.6
2023-03-20T03:10:22.785Z,7.1
2023-03-20T03:11:31.122Z,7.1
2023-03-20T03:12:39.436Z,7.1
2023-03-20T03:13:47.984Z,7.4
2023-03-20T03:14:56.316Z,7.4
2023-03-20T03:16:04.716Z,7.4
2023-03-20T03:17:13.179Z,7.7
2023-03-20T03:18:21.524Z,7.7
2023-03-20T03:19:29.856Z,7.7
2023-03-20T03:20:38.423Z,6.8
2023-03-20T03:21:46.765Z,6.8
2023-03-20T03:22:55.069Z,6.8
2023-03-20T03:24:03.610Z,6.9
2023-03-20T03:25:11.949Z,6.9
2023-03-20T03:26:20.287Z,6.9
2023-03-20T03:27:28.817Z,6.4
2023-03-20T03:28:37.200Z,6.4
2023-03-20T03:29:45.476Z,6.4
2023-03-20T03:30:54.060Z,6.8
2023-03-20T03:32:02.353Z,6.8
2023-03-20T03:33:10.759Z,6.8
2023-03-20T03:34:19.224Z,7.5
2023-03-20T03:35:27.555Z,7.5
2023-03-20T03:36:35.905Z,7.5
2023-03-20T03:37:44.468Z,7.2
2023-03-20T03:38:52.776Z,7.2
2023-03-20T03:40:01.130Z,7.2
2023-03-20T03:41:09.687Z,7.9
2023-03-20T03:42:18.017Z,7.9
2023-03-20T03:43:26.357Z,7.9
2023-03-20T03:44:34.884Z,7.8
2023-03-20T03:45:43.218Z,7.8
2023-03-20T03:46:51.598Z,7.8
2023-03-20T03:48:00.122Z,8
2023-03-20T03:49:08.438Z,8
2023-03-20T03:50:16.772Z,8
2023-03-20T03:51:25.325Z,8.7
2023-03-20T03:52:33.667Z,8.7
2023-03-20T03:53:42.014Z,8.7
2023-03-20T03:54:50.522Z,9.2
2023-03-20T03:55:58.886Z,9.2
2023-03-20T03:57:07.188Z,9.2
2023-03-20T03:58:15.729Z,9.6
2023-03-20T03:59:24.052Z,9.6
2023-03-20T04:00:32.379Z,9.6
2023-03-20T04:01:41.003Z,10.5
2023-03-20T04:02:49.258Z,10.5
2023-03-20T04:03:57.600Z,10.5
2023-03-20T04:05:06.185Z,10.6
2023-03-20T04:06:14.468Z,10.6
2023-03-20T04:07:22.781Z,10.6
2023-03-20T04:08:31.313Z,10.4
2023-03-20T04:09:39.673Z,10.4
2023-03-20T04:10:47.974Z,10.4
2023-03-20T04:11:56.524Z,11.2
2023-03-20T04:13:04.845Z,11.2
2023-03-20T04:14:13.176Z,11.2
2023-03-20T04:15:21.713Z,10.4
2023-03-20T04:16:30.122Z,10.4
2023-03-20T04:17:38.418Z,10.4
2023-03-20T04:18:46.941Z,10.8
2023-03-20T04:19:55.294Z,10.8
2023-03-20T04:21:03.630Z,10.8
2023-03-20T04:22:12.185Z,10.9
2023-03-20T04:23:20.571Z,10.9
2023-03-20T04:24:28.881Z,10.9
2023-03-20T04:25:37.637Z,10.3
2023-03-20T04:26:45.770Z,10.3
2023-03-20T04:27:54.134Z,10.3
2023-03-20T04:29:02.692Z,10.8
2023-03-20T04:30:11.034Z,10.8
2023-03-20T04:31:19.492Z,10.8
2023-03-20T04:32:28.083Z,10.9
2023-03-20T04:33:36.412Z,10.9
2023-03-20T04:34:44.763Z,10.9
2023-03-20T04:35:53.297Z,11.3
2023-03-20T04:37:01.687Z,11.3
2023-03-20T04:38:10.026Z,11.3
2023-03-20T04:39:18.548Z,11.1
2023-03-20T04:40:26.877Z,11.1
2023-03-20T04:41:35.234Z,11.1
2023-03-20T04:42:43.782Z,11.4
2023-03-20T04:43:52.114Z,11.4
2023-03-20T04:45:00.470Z,11.4
2023-03-20T04:46:09.102Z,12.1
2023-03-20T04:47:17.408Z,12.1
2023-03-20T04:48:26.170Z,12.1
2023-03-20T04:49:34.729Z,11.6
2023-03-20T04:50:43.053Z,11.6
2023-03-20T04:51:51.383Z,11.6
2023-03-20T04:52:59.909Z,12
2023-03-20T04:54:08.264Z,12
2023-03-20T04:55:16.601Z,12
2023-03-20T04:56:25.157Z,12
2023-03-20T04:57:34.218Z,12
2023-03-20T04:58:42.540Z,12
2023-03-20T04:59:51.047Z,11.6
2023-03-20T05:00:59.417Z,11.6
2023-03-20T05:02:07.751Z,11.6
2023-03-20T05:03:16.291Z,11.8
2023-03-20T05:04:24.646Z,11.8
2023-03-20T05:05:33.220Z,11.8
2023-03-20T05:06:41.501Z,11.4
2023-03-20T05:07:49.854Z,11.4
2023-03-20T05:08:58.195Z,11.4
2023-03-20T05:10:06.735Z,11.8
2023-03-20T05:11:15.114Z,11.8
2023-03-20T05:12:23.462Z,11.8
2023-03-20T05:13:31.999Z,11.5
2023-03-20T05:14:40.305Z,11.5
2023-03-20T05:15:48.645Z,11.5
2023-03-20T05:16:57.244Z,11.6
2023-03-20T05:18:05.567Z,11.6
2023-03-20T05:19:13.855Z,11.6
2023-03-20T05:20:22.400Z,12.3
2023-03-20T05:21:30.744Z,12.3
2023-03-20T05:22:39.086Z,12.3
2023-03-20T05:23:47.616Z,11.6
2023-03-20T05:24:55.931Z,11.6
2023-03-20T05:26:04.273Z,11.6
2023-03-20T05:27:12.814Z,11.1
2023-03-20T05:28:21.137Z,11.1
2023-03-20T05:29:29.496Z,11.1
2023-03-20T05:30:38.034Z,11.4
2023-03-20T05:31:46.375Z,11.4
2023-03-20T05:32:54.788Z,11.4
2023-03-20T05:34:03.259Z,11.3
2023-03-20T05:35:11.590Z,11.3
2023-03-20T05:36:20.072Z,11.3
2023-03-20T05:37:28.464Z,11.2
2023-03-20T05:38:36.806Z,11.2
2023-03-20T05:39:45.136Z,11.2
2023-03-20T05:40:53.671Z,11.2
2023-03-20T05:42:02.005Z,11.2
2023-03-20T05:43:10.356Z,11.2
2023-03-20T05:44:18.877Z,11.2
2023-03-20T05:45:27.230Z,11.2
2023-03-20T05:46:35.588Z,11.2
2023-03-20T05:47:44.077Z,11.1
2023-03-20T05:48:52.396Z,11.1
2023-03-20T05:50:00.740Z,11.1
2023-03-20T05:51:09.297Z,11.3
2023-03-20T05:52:17.649Z,11.3
2023-03-20T05:53:26.000Z,11.3
2023-03-20T05:54:34.567Z,13.1
2023-03-20T05:55:42.901Z,13.1
2023-03-20T05:56:51.275Z,13.1
2023-03-20T05:57:59.825Z,13.2
2023-03-20T05:59:08.119Z,13.2
2023-03-20T06:00:16.458Z,13.2
2023-03-20T06:01:25.071Z,12.7
2023-03-20T06:02:33.443Z,12.7
2023-03-20T06:03:41.776Z,12.7
2023-03-20T06:04:50.237Z,14.4
2023-03-20T06:05:58.602Z,14.4
2023-03-20T06:07:06.943Z,14.4
2023-03-20T06:08:15.524Z,10.8
2023-03-20T06:09:23.870Z,10.8
2023-03-20T06:10:32.240Z,10.8
2023-03-20T06:11:40.788Z,17
2023-03-20T06:12:49.110Z,17
2023-03-20T06:13:57.475Z,17
2023-03-20T06:15:06.033Z,10.8
2023-03-20T06:16:14.457Z,10.8
2023-03-20T06:17:22.764Z,10.8
2023-03-20T06:18:31.280Z,11.6
2023-03-20T06:19:39.636Z,11.6
2023-03-20T06:20:47.998Z,11.6
2023-03-20T06:21:56.546Z,10.6
2023-03-20T06:23:04.912Z,10.6
2023-03-20T06:24:13.274Z,10.6
2023-03-20T06:25:21.813Z,10.1
2023-03-20T06:26:30.248Z,10.1
2023-03-20T06:27:38.575Z,10.1
2023-03-20T06:28:47.114Z,11.1
2023-03-20T06:29:55.443Z,11.1
2023-03-20T06:31:03.799Z,11.1
2023-03-20T06:32:12.337Z,23.5
2023-03-20T06:33:20.658Z,23.5
2023-03-20T06:34:28.958Z,23.5
2023-03-20T06:35:37.814Z,23.6
2023-03-20T06:36:45.825Z,23.6
2023-03-20T06:37:54.138Z,23.6
2023-03-20T06:39:02.681Z,16.9
2023-03-20T06:40:11.013Z,16.9
2023-03-20T06:41:33.595Z,16.9
2023-03-20T06:42:28.259Z,17
2023-03-20T06:43:36.515Z,17
2023-03-20T06:44:44.849Z,17
2023-03-20T06:45:53.376Z,43.299999
2023-03-20T06:47:01.710Z,43.299999
2023-03-20T06:48:10.044Z,43.299999
2023-03-20T06:49:18.593Z,20.5
2023-03-20T06:50:26.901Z,20.5
2023-03-20T06:51:35.255Z,20.5
2023-03-20T06:52:43.793Z,22.4
2023-03-20T06:53:52.145Z,22.4
2023-03-20T06:55:00.459Z,22.4
2023-03-20T06:56:09.016Z,22.1
2023-03-20T06:57:17.341Z,22.1
2023-03-20T06:58:25.676Z,22.1
2023-03-20T06:59:34.466Z,14.1
2023-03-20T07:00:42.793Z,14.1
2023-03-20T07:01:51.170Z,14.1
2023-03-20T07:03:01.777Z,16.5
2023-03-20T07:04:07.994Z,16.5
2023-03-20T07:05:16.435Z,16.5
2023-03-20T07:06:24.858Z,15.1
2023-03-20T07:07:33.181Z,15.1
2023-03-20T07:08:41.539Z,15.1
2023-03-20T07:09:50.071Z,13.6
2023-03-20T07:10:58.448Z,13.6
2023-03-20T07:12:06.794Z,13.6
2023-03-20T07:13:15.333Z,14.3
2023-03-20T07:14:23.671Z,14.3
2023-03-20T07:15:32.010Z,14.3
2023-03-20T07:16:40.628Z,13.4
2023-03-20T07:17:48.926Z,13.4
2023-03-20T07:18:57.256Z,13.4
2023-03-20T07:20:05.862Z,13.5
2023-03-20T07:21:14.261Z,13.5
2023-03-20T07:22:22.566Z,13.5
2023-03-20T07:23:31.092Z,14.5
2023-03-20T07:24:39.407Z,14.5
2023-03-20T07:25:48.241Z,14.5
2023-03-20T07:26:56.333Z,18.799999
2023-03-20T07:28:04.654Z,18.799999
2023-03-20T07:29:12.989Z,18.799999
2023-03-20T07:30:21.538Z,15
2023-03-20T07:31:29.948Z,15
2023-03-20T07:32:38.250Z,15
2023-03-20T07:33:46.733Z,15.3
2023-03-20T07:34:55.079Z,15.3
2023-03-20T07:36:03.527Z,15.3
2023-03-20T07:37:11.993Z,14.9
2023-03-20T07:38:20.294Z,14.9
2023-03-20T07:39:28.629Z,14.9
2023-03-20T07:40:37.184Z,14.3
2023-03-20T07:41:45.543Z,14.3
2023-03-20T07:42:53.857Z,14.3
2023-03-20T07:44:02.403Z,15.8
2023-03-20T07:45:10.736Z,15.8
2023-03-20T07:46:19.124Z,15.8
2023-03-20T07:47:27.605Z,16.200001
2023-03-20T07:48:35.946Z,16.200001
2023-03-20T07:49:44.286Z,16.200001
2023-03-20T07:50:52.859Z,24.700001
2023-03-20T07:52:01.196Z,24.700001
2023-03-20T07:53:09.534Z,24.700001
2023-03-20T07:54:18.042Z,18.6
2023-03-20T07:55:26.385Z,18.6
2023-03-20T07:56:34.721Z,18.6
2023-03-20T07:57:43.241Z,16.9
2023-03-20T07:58:51.587Z,16.9
2023-03-20T07:59:59.901Z,16.9
2023-03-20T08:01:08.457Z,18.200001
2023-03-20T08:02:16.783Z,18.200001
2023-03-20T08:03:25.262Z,18.200001
2023-03-20T08:04:33.662Z,19
2023-03-20T08:05:42.002Z,19
2023-03-20T08:06:50.353Z,19
2023-03-20T08:07:58.881Z,17
2023-03-20T08:09:07.248Z,17
2023-03-20T08:10:15.546Z,17
2023-03-20T08:11:24.089Z,16.700001
2023-03-20T08:12:32.429Z,16.700001
2023-03-20T08:13:40.785Z,16.700001
2023-03-20T08:14:49.296Z,15.5
2023-03-20T08:15:57.649Z,15.5
2023-03-20T08:17:14.163Z,15.5
2023-03-20T08:18:14.528Z,14.8
2023-03-20T08:19:22.880Z,14.8
2023-03-20T08:20:31.222Z,14.8
2023-03-20T08:21:39.749Z,14.1
2023-03-20T08:22:48.077Z,14.1
2023-03-20T08:23:56.399Z,14.1
2023-03-20T08:25:05.026Z,14.3
2023-03-20T08:26:13.301Z,14.3
2023-03-20T08:27:21.614Z,14.3
2023-03-20T08:28:46.130Z,14.2
2023-03-20T08:29:38.629Z,14.2
2023-03-20T08:30:46.833Z,14.2
2023-03-20T08:31:55.380Z,13.6
2023-03-20T08:33:03.712Z,13.6
2023-03-20T08:34:12.032Z,13.6
2023-03-20T08:35:32.427Z,16.200001
2023-03-20T08:36:28.924Z,16.200001
2023-03-20T08:37:37.258Z,16.200001
2023-03-20T08:38:45.922Z,14
2023-03-20T08:39:54.142Z,14
2023-03-20T08:41:02.501Z,14
2023-03-20T08:42:11.025Z,12.4
2023-03-20T08:43:19.362Z,12.4
2023-03-20T08:44:27.706Z,12.4
2023-03-20T08:45:36.510Z,13.1
2023-03-20T08:46:44.638Z,13.1
2023-03-20T08:47:52.973Z,13.1
2023-03-20T08:49:01.500Z,12.7
2023-03-20T08:50:09.837Z,12.7
2023-03-20T08:51:18.176Z,12.7
2023-03-20T08:52:26.718Z,12.1
2023-03-20T08:53:35.068Z,12.1
2023-03-20T08:54:43.370Z,12.1
2023-03-20T08:55:51.920Z,11.3
2023-03-20T08:57:00.321Z,11.3
2023-03-20T08:58:08.610Z,11.3
2023-03-20T08:59:17.167Z,11.2
2023-03-20T09:00:25.515Z,11.2
2023-03-20T09:01:48.138Z,11.2
2023-03-20T09:02:42.433Z,10.6
2023-03-20T09:03:50.730Z,10.6
2023-03-20T09:04:59.052Z,10.6
2023-03-20T09:06:07.608Z,10.8
2023-03-20T09:07:15.945Z,10.8
2023-03-20T09:08:24.278Z,10.8
2023-03-20T09:09:32.830Z,11.3
2023-03-20T09:10:41.177Z,11.3
2023-03-20T09:11:49.506Z,11.3
2023-03-20T09:12:58.083Z,11.4
2023-03-20T09:14:06.384Z,11.4
2023-03-20T09:15:14.734Z,11.4
2023-03-20T09:16:23.308Z,11.8
2023-03-20T09:17:31.618Z,11.8
2023-03-20T09:18:39.953Z,11.8
2023-03-20T09:19:48.495Z,11.9
2023-03-20T09:20:56.848Z,11.9
2023-03-20T09:22:05.166Z,11.9
2023-03-20T09:23:13.707Z,11.3
2023-03-20T09:24:22.045Z,11.3
2023-03-20T09:25:30.379Z,11.3
2023-03-20T09:26:38.925Z,11.2
2023-03-20T09:27:47.282Z,11.2
2023-03-20T09:28:55.610Z,11.2
2023-03-20T09:30:04.151Z,11.6
2023-03-20T09:31:12.530Z,11.6
2023-03-20T09:32:20.833Z,11.6
2023-03-20T09:33:29.386Z,11.1
2023-03-20T09:34:37.736Z,11.1
2023-03-20T09:35:46.083Z,11.1
2023-03-20T09:36:54.639Z,11.6
2023-03-20T09:38:02.986Z,11.6
2023-03-20T09:39:11.337Z,11.6
2023-03-20T09:40:19.898Z,12.2
2023-03-20T09:41:28.519Z,12.2
2023-03-20T09:42:36.576Z,12.2
2023-03-20T09:43:45.116Z,12.4
2023-03-20T09:44:53.607Z,12.4
2023-03-20T09:46:01.822Z,12.4
2023-03-20T09:47:19.638Z,13.3
2023-03-20T09:48:18.681Z,13.3
2023-03-20T09:49:27.017Z,13.3
2023-03-20T09:50:35.769Z,13.3
2023-03-20T09:51:43.922Z,13.3
2023-03-20T09:52:52.274Z,13.3
2023-03-20T09:54:01.504Z,13.8
2023-03-20T09:55:09.272Z,13.8
2023-03-20T09:56:17.518Z,13.8
2023-03-20T09:57:26.054Z,14.5
2023-03-20T09:58:34.394Z,14.5
2023-03-20T09:59:42.727Z,14.5
2023-03-20T10:00:51.319Z,12.8
2023-03-20T10:01:59.706Z,12.8
2023-03-20T10:03:07.965Z,12.8
2023-03-20T10:04:16.605Z,15.2
2023-03-20T10:05:24.916Z,15.2
2023-03-20T10:06:33.276Z,15.2
2023-03-20T10:07:41.837Z,15.8
2023-03-20T10:08:50.153Z,15.8
2023-03-20T10:09:58.472Z,15.8
2023-03-20T10:11:07.035Z,14.4
2023-03-20T10:12:15.399Z,14.4
2023-03-20T10:13:23.744Z,14.4
2023-03-20T10:14:32.293Z,13.2
2023-03-20T10:15:40.631Z,13.2
2023-03-20T10:16:49.013Z,13.2
2023-03-20T10:17:57.541Z,13.7
2023-03-20T10:19:05.868Z,13.7
2023-03-20T10:20:14.207Z,13.7
2023-03-20T10:21:22.767Z,12.8
2023-03-20T10:22:31.114Z,12.8
2023-03-20T10:23:39.456Z,12.8
2023-03-20T10:24:48.002Z,13.7
2023-03-20T10:25:56.361Z,13.7
2023-03-20T10:27:04.684Z,13.7
2023-03-20T10:28:13.210Z,14.3
2023-03-20T10:29:21.551Z,14.3
2023-03-20T10:30:29.901Z,14.3
2023-03-20T10:31:38.512Z,15.5
2023-03-20T10:32:46.864Z,15.5
2023-03-20T10:33:55.146Z,15.5
2023-03-20T10:35:03.695Z,15.2
2023-03-20T10:36:12.111Z,15.2
2023-03-20T10:37:20.402Z,15.2
2023-03-20T10:38:28.953Z,15.6
2023-03-20T10:39:37.312Z,15.6
2023-03-20T10:40:45.642Z,15.6
2023-03-20T10:41:54.192Z,16.200001
2023-03-20T10:43:02.526Z,16.200001
2023-03-20T10:44:10.837Z,16.200001
2023-03-20T10:45:19.382Z,17
2023-03-20T10:46:27.792Z,17
2023-03-20T10:47:36.062Z,17
2023-03-20T10:48:44.617Z,15.5
2023-03-20T10:49:52.918Z,15.5
2023-03-20T10:51:01.243Z,15.5
2023-03-20T10:52:09.794Z,15.7
2023-03-20T10:53:18.147Z,15.7
2023-03-20T10:54:26.606Z,15.7
2023-03-20T10:55:35.162Z,16
2023-03-20T10:56:43.530Z,16
2023-03-20T10:57:51.871Z,16
2023-03-20T10:59:00.442Z,16.4
2023-03-20T11:00:08.926Z,16.4
2023-03-20T11:01:17.311Z,16.4
2023-03-20T11:02:25.796Z,17.700001
2023-03-20T11:03:34.130Z,17.700001
2023-03-20T11:04:42.472Z,17.700001
2023-03-20T11:06:06.581Z,16.700001
2023-03-20T11:06:59.322Z,16.700001
2023-03-20T11:08:07.660Z,16.700001
2023-03-20T11:09:16.192Z,16.1
2023-03-20T11:10:24.527Z,16.1
2023-03-20T11:11:32.868Z,16.1
2023-03-20T11:12:41.433Z,18
2023-03-20T11:13:49.731Z,18
2023-03-20T11:14:58.042Z,18
2023-03-20T11:16:06.644Z,17.4
2023-03-20T11:17:14.944Z,17.4
2023-03-20T11:18:23.258Z,17.4
2023-03-20T11:19:31.799Z,17.299999
2023-03-20T11:20:40.144Z,17.299999
2023-03-20T11:21:48.503Z,17.299999
2023-03-20T11:22:57.038Z,17.9
2023-03-20T11:24:05.469Z,17.9
2023-03-20T11:25:13.787Z,17.9
2023-03-20T11:26:22.315Z,18
2023-03-20T11:27:30.662Z,18
2023-03-20T11:28:39.003Z,18
2023-03-20T11:29:47.541Z,17.799999
2023-03-20T11:31:04.266Z,17.799999
2023-03-20T11:32:04.233Z,17.799999
2023-03-20T11:33:12.799Z,16.6
2023-03-20T11:34:21.048Z,16.6
2023-03-20T11:35:29.411Z,16.6
2023-03-20T11:36:37.982Z,17
2023-03-20T11:37:46.295Z,17
2023-03-20T11:38:54.622Z,17
2023-03-20T11:40:03.186Z,17.4
2023-03-20T11:41:11.524Z,17.4
2023-03-20T11:42:19.853Z,17.4
2023-03-20T11:43:28.388Z,17.1
2023-03-20T11:44:36.721Z,17.1
2023-03-20T11:45:45.152Z,17.1
2023-03-20T11:46:53.668Z,17.799999
2023-03-20T11:48:03.908Z,17.799999
2023-03-20T11:49:10.344Z,17.799999
2023-03-20T11:50:18.875Z,17.799999
2023-03-20T11:51:27.212Z,17.799999
2023-03-20T11:52:35.555Z,17.799999
2023-03-20T11:53:45.785Z,18
2023-03-20T11:54:52.403Z,18
2023-03-20T11:56:00.726Z,18
2023-03-20T11:57:09.279Z,17.6
2023-03-20T11:58:17.626Z,17.6
2023-03-20T11:59:25.945Z,17.6
2023-03-20T12:00:34.837Z,16.9
2023-03-20T12:01:42.833Z,16.9
2023-03-20T12:02:51.264Z,16.9
2023-03-20T12:03:59.788Z,16.5
2023-03-20T12:05:08.046Z,16.5
2023-03-20T12:06:16.397Z,16.5
2023-03-20T12:07:24.923Z,15.9
2023-03-20T12:08:33.375Z,15.9
2023-03-20T12:09:41.587Z,15.9
2023-03-20T12:10:50.113Z,15.7
2023-03-20T12:12:00.051Z,15.7
2023-03-20T12:13:06.769Z,15.7
2023-03-20T12:14:15.320Z,14.7
2023-03-20T12:15:23.660Z,14.7
2023-03-20T12:16:32.003Z,14.7
2023-03-20T12:17:40.548Z,14.6
2023-03-20T12:18:48.866Z,14.6
2023-03-20T12:19:57.212Z,14.6
2023-03-20T12:21:05.740Z,13.6
2023-03-20T12:22:14.072Z,13.6
2023-03-20T12:23:22.399Z,13.6
2023-03-20T12:24:30.967Z,13.9
2023-03-20T12:25:39.288Z,13.9
2023-03-20T12:26:47.629Z,13.9
2023-03-20T12:27:56.203Z,13.7
2023-03-20T12:29:04.534Z,13.7
2023-03-20T12:30:12.872Z,13.7
2023-03-20T12:31:21.482Z,13.5
2023-03-20T12:32:29.757Z,13.5
2023-03-20T12:33:38.081Z,13.5
2023-03-20T12:34:46.626Z,14.2
2023-03-20T12:35:54.965Z,14.2
2023-03-20T12:37:03.296Z,14.2
2023-03-20T12:38:11.841Z,14.7
2023-03-20T12:39:20.172Z,14.7
2023-03-20T12:40:28.531Z,14.7
2023-03-20T12:41:37.076Z,14.4
2023-03-20T12:42:45.422Z,14.4
2023-03-20T12:43:53.776Z,14.4
2023-03-20T12:45:02.340Z,14
2023-03-20T12:46:10.690Z,14
2023-03-20T12:47:19.942Z,14
2023-03-20T12:48:28.451Z,13.6
2023-03-20T12:49:36.946Z,13.6
2023-03-20T12:50:45.868Z,13.6
2023-03-20T12:51:54.412Z,13.3
2023-03-20T12:53:02.744Z,13.3
2023-03-20T12:54:11.053Z,13.3
2023-03-20T12:55:19.599Z,12.7
2023-03-20T12:56:27.971Z,12.7
2023-03-20T12:57:36.284Z,12.7
2023-03-20T12:58:44.845Z,12.5
2023-03-20T12:59:53.179Z,12.5
2023-03-20T13:01:01.506Z,12.5
2023-03-20T13:02:10.059Z,12.6
2023-03-20T13:03:18.442Z,12.6
2023-03-20T13:04:26.722Z,12.6
2023-03-20T13:05:35.290Z,11.4
2023-03-20T13:06:43.640Z,11.4
2023-03-20T13:07:51.973Z,11.4
2023-03-20T13:09:00.515Z,12.1
2023-03-20T13:10:09.097Z,12.1
2023-03-20T13:11:17.418Z,12.1
2023-03-20T13:12:25.988Z,12.4
2023-03-20T13:13:34.316Z,12.4
2023-03-20T13:14:42.632Z,12.4
2023-03-20T13:15:51.215Z,12.4
2023-03-20T13:16:59.496Z,12.4
2023-03-20T13:18:07.814Z,12.4
2023-03-20T13:19:16.370Z,12.6
2023-03-20T13:20:24.702Z,12.6
2023-03-20T13:21:33.062Z,12.6
2023-03-20T13:22:41.605Z,11.2
2023-03-20T13:23:49.934Z,11.2
2023-03-20T13:24:58.298Z,11.2
2023-03-20T13:26:06.862Z,11.5
2023-03-20T13:27:15.187Z,11.5
2023-03-20T13:28:23.586Z,11.5
2023-03-20T13:29:32.081Z,12.1
2023-03-20T13:30:40.414Z,12.1
2023-03-20T13:31:48.811Z,12.1
2023-03-20T13:32:57.337Z,12
2023-03-20T13:34:05.613Z,12
2023-03-20T13:35:13.972Z,12
2023-03-20T13:36:22.577Z,11.6
2023-03-20T13:37:30.956Z,11.6
2023-03-20T13:38:39.272Z,11.6
2023-03-20T13:39:47.817Z,11.8
2023-03-20T13:40:56.146Z,11.8
2023-03-20T13:42:04.495Z,11.8
2023-03-20T13:43:13.057Z,12.6
2023-03-20T13:44:21.383Z,12.6
2023-03-20T13:45:31.877Z,12.6
2023-03-20T13:46:38.516Z,13.9
2023-03-20T13:47:46.665Z,13.9
2023-03-20T13:48:55.014Z,13.9
2023-03-20T13:50:03.548Z,11.3
2023-03-20T13:51:11.892Z,11.3
2023-03-20T13:52:20.227Z,11.3
2023-03-20T13:53:28.775Z,11
2023-03-20T13:54:37.092Z,11
2023-03-20T13:55:45.427Z,11
2023-03-20T13:56:54.003Z,10.9
2023-03-20T13:58:02.290Z,10.9
2023-03-20T13:59:10.644Z,10.9
2023-03-20T14:00:19.204Z,11.2
2023-03-20T14:01:27.553Z,11.2
2023-03-20T14:02:35.865Z,11.2
2023-03-20T14:03:44.429Z,11.1
2023-03-20T14:04:52.714Z,11.1
2023-03-20T14:06:01.059Z,11.1
2023-03-20T14:07:09.595Z,11.1
2023-03-20T14:08:17.925Z,11.1
2023-03-20T14:09:26.269Z,11.1
2023-03-20T14:10:35.085Z,11.2
2023-03-20T14:11:43.177Z,11.2
2023-03-20T14:12:51.523Z,11.2
2023-03-20T14:14:00.097Z,10.8
2023-03-20T14:15:08.401Z,10.8
2023-03-20T14:16:16.756Z,10.8
2023-03-20T14:17:25.297Z,11.3
2023-03-20T14:18:33.621Z,11.3
2023-03-20T14:19:41.960Z,11.3
2023-03-20T14:20:50.504Z,11.4
2023-03-20T14:21:58.883Z,11.4
2023-03-20T14:23:07.204Z,11.4
2023-03-20T14:24:15.726Z,11.4
2023-03-20T14:25:24.068Z,11.4
2023-03-20T14:26:32.401Z,11.4
2023-03-20T14:27:44.609Z,11
2023-03-20T14:28:49.300Z,11
2023-03-20T14:29:57.650Z,11
2023-03-20T14:31:06.200Z,10.9
2023-03-20T14:32:14.571Z,10.9
2023-03-20T14:33:23.537Z,10.9
2023-03-20T14:34:31.424Z,11.5
2023-03-20T14:35:39.787Z,11.5
2023-03-20T14:36:48.112Z,11.5
2023-03-20T14:37:56.666Z,10.2
2023-03-20T14:39:04.999Z,10.2
2023-03-20T14:40:13.341Z,10.2
2023-03-20T14:41:21.908Z,10.7
2023-03-20T14:42:30.227Z,10.7
2023-03-20T14:43:38.553Z,10.7
2023-03-20T14:44:47.101Z,10.7
2023-03-20T14:45:55.494Z,10.7
2023-03-20T14:47:03.770Z,10.7
2023-03-20T14:48:12.352Z,11
2023-03-20T14:49:20.667Z,11
2023-03-20T14:50:29.001Z,11
2023-03-20T14:51:37.578Z,9.6
2023-03-20T14:52:45.880Z,9.6
2023-03-20T14:53:54.218Z,9.6
2023-03-20T14:55:02.778Z,7.9
2023-03-20T14:56:11.127Z,7.9
2023-03-20T14:57:19.496Z,7.9
2023-03-20T14:58:28.042Z,8.2
2023-03-20T14:59:36.379Z,8.2
2023-03-20T15:00:44.729Z,8.2
2023-03-20T15:01:53.393Z,8.2
2023-03-20T15:03:01.613Z,8.2
2023-03-20T15:04:09.969Z,8.2
2023-03-20T15:05:18.504Z,9.8
2023-03-20T15:38:54.949Z,0
2023-03-20T15:40:03.387Z,0
2023-03-20T15:41:11.614Z,0
2023-03-20T15:42:20.190Z,10.9
2023-03-20T15:43:28.508Z,10.9
2023-03-20T15:44:36.873Z,10.9
2023-03-20T15:45:45.390Z,12.8
2023-03-20T15:46:53.729Z,12.8
2023-03-20T15:48:02.102Z,12.8
2023-03-20T15:49:10.653Z,12.2
2023-03-20T15:50:18.994Z,12.2